Main page
Satellite images 15-day forecastsClimateMarine weather Cyclones Lightning AirportsFAQ Newsletter About
Weather : Europe Africa North America South America Asia Australia-Oceania Others
Languages Contact

London, England

City airport

latitude: 51-30N, longitude: 000-03E, elevation: 5 m


METAR: EGLC 182250Z AUTO 24018G28KT 9999 BKN014/// 13/10 Q1010
TAF: EGLC 181657Z 1818/1822 24015KT 9999 BKN016 BECMG 1818/1821 BKN012 TEMPO 1818/1822 24018G28KT 6000 RA BKN008

Time: 23:01 (23:01 UTC)

Current weather observation

The report was made 11 minutes ago, at 22:50 UTC
Wind 18 kt from the West/Southwest with gusts up to 28 kt
Temperature 13°C
Humidity 82%
Pressure 1010 hPa
Visibility 10 km or more

Change units

Forecast

The report was made 6 hours and 4 minutes ago, at 16:57 UTC
Forecast valid from 18 at 18 UTC to 18 at 22 UTC
Wind 15 kt from the West/Southwest
Visibility 10 km or more
Broken clouds at a height of 1600 ft
Becoming
from 18 at 18 UTC to 18 at 21 UTC
Broken clouds at a height of 1200 ft
Temporary
from 18 at 18 UTC to 18 at 22 UTC
Wind 18 kt from the West/Southwest with gusts up to 28 kt
Visibility: 6000 m
Broken clouds at a height of 800 ft
rain
The information on this site is subject to a disclaimer
Weather : Europe Africa North America South America Asia Australia-Oceania Others
Satellite images 15-day forecastsClimateMarine weather Cyclones Lightning AirportsFAQ Languages Contact Newsletter About